sensor_id;sensor_type;location;lat;lon;timestamp;pressure;altitude;pressure_sealevel;temperature;humidity
9695;BME280;4690;52.422;13.486;2023-04-26T00:05:21;101073.44;;;7.77;60.21
9695;BME280;4690;52.422;13.486;2023-04-26T00:07:47;101077.63;;;7.73;60.23
9695;BME280;4690;52.422;13.486;2023-04-26T00:10:15;101076.38;;;7.75;60.38
9695;BME280;4690;52.422;13.486;2023-04-26T00:12:40;101083.28;;;7.71;60.22
9695;BME280;4690;52.422;13.486;2023-04-26T00:15:07;101079.75;;;7.77;60.39
9695;BME280;4690;52.422;13.486;2023-04-26T00:17:34;101077.91;;;7.84;60.33
9695;BME280;4690;52.422;13.486;2023-04-26T00:20:00;101075.72;;;7.73;60.34
9695;BME280;4690;52.422;13.486;2023-04-26T00:22:26;101075.16;;;7.50;60.41
9695;BME280;4690;52.422;13.486;2023-04-26T00:24:52;101078.16;;;7.55;60.90
9695;BME280;4690;52.422;13.486;2023-04-26T00:27:18;101075.34;;;7.48;61.54
9695;BME280;4690;52.422;13.486;2023-04-26T00:29:43;101075.06;;;7.36;61.53
9695;BME280;4690;52.422;13.486;2023-04-26T00:32:09;101076.38;;;7.40;61.69
9695;BME280;4690;52.422;13.486;2023-04-26T00:34:36;101080.91;;;7.33;61.72
9695;BME280;4690;52.422;13.486;2023-04-26T00:37:04;101077.66;;;7.23;62.54
9695;BME280;4690;52.422;13.486;2023-04-26T00:39:30;101079.63;;;7.29;62.97
9695;BME280;4690;52.422;13.486;2023-04-26T00:41:57;101079.56;;;7.23;62.07
9695;BME280;4690;52.422;13.486;2023-04-26T00:44:22;101079.38;;;7.03;63.11
9695;BME280;4690;52.422;13.486;2023-04-26T00:46:52;101077.00;;;6.93;63.34
9695;BME280;4690;52.422;13.486;2023-04-26T00:49:21;101086.38;;;7.12;63.01
9695;BME280;4690;52.422;13.486;2023-04-26T00:51:49;101078.84;;;7.14;62.71
9695;BME280;4690;52.422;13.486;2023-04-26T00:54:16;101088.91;;;7.13;62.99
9695;BME280;4690;52.422;13.486;2023-04-26T00:56:44;101082.03;;;7.17;62.92
9695;BME280;4690;52.422;13.486;2023-04-26T00:59:10;101083.25;;;7.15;63.06
9695;BME280;4690;52.422;13.486;2023-04-26T01:01:36;101091.06;;;7.18;62.85
9695;BME280;4690;52.422;13.486;2023-04-26T01:04:03;101088.00;;;7.28;62.76
9695;BME280;4690;52.422;13.486;2023-04-26T01:06:34;101086.50;;;7.25;62.84
9695;BME280;4690;52.422;13.486;2023-04-26T01:09:03;101092.09;;;7.17;62.49
9695;BME280;4690;52.422;13.486;2023-04-26T01:11:35;101087.56;;;7.03;63.50
9695;BME280;4690;52.422;13.486;2023-04-26T01:14:03;101084.88;;;7.09;63.21
9695;BME280;4690;52.422;13.486;2023-04-26T01:16:29;101084.81;;;7.03;63.49
9695;BME280;4690;52.422;13.486;2023-04-26T01:18:55;101090.00;;;6.97;63.76
9695;BME280;4690;52.422;13.486;2023-04-26T01:21:23;101090.91;;;6.83;64.29
9695;BME280;4690;52.422;13.486;2023-04-26T01:23:50;101099.31;;;6.82;64.28
9695;BME280;4690;52.422;13.486;2023-04-26T01:26:17;101091.84;;;6.90;64.53
9695;BME280;4690;52.422;13.486;2023-04-26T01:28:43;101097.28;;;6.90;64.38
9695;BME280;4690;52.422;13.486;2023-04-26T01:31:11;101094.19;;;6.93;64.17
9695;BME280;4690;52.422;13.486;2023-04-26T01:33:36;101097.34;;;6.97;64.74
9695;BME280;4690;52.422;13.486;2023-04-26T01:36:07;101108.03;;;6.77;64.80
9695;BME280;4690;52.422;13.486;2023-04-26T01:38:33;101105.03;;;6.72;65.53
9695;BME280;4690;52.422;13.486;2023-04-26T01:40:58;101107.78;;;6.72;65.79
9695;BME280;4690;52.422;13.486;2023-04-26T01:43:24;101107.59;;;6.73;65.33
9695;BME280;4690;52.422;13.486;2023-04-26T01:45:50;101117.72;;;6.80;65.22
9695;BME280;4690;52.422;13.486;2023-04-26T01:48:16;101111.00;;;6.61;65.69
9695;BME280;4690;52.422;13.486;2023-04-26T01:50:42;101120.25;;;6.45;66.00
9695;BME280;4690;52.422;13.486;2023-04-26T01:53:07;101112.16;;;6.51;65.79
9695;BME280;4690;52.422;13.486;2023-04-26T01:55:33;101108.38;;;6.53;66.54
9695;BME280;4690;52.422;13.486;2023-04-26T01:57:59;101112.03;;;6.60;66.91
9695;BME280;4690;52.422;13.486;2023-04-26T02:00:28;101109.31;;;6.60;66.81
9695;BME280;4690;52.422;13.486;2023-04-26T02:02:55;101107.63;;;6.59;65.92
9695;BME280;4690;52.422;13.486;2023-04-26T02:05:21;101109.88;;;6.55;66.73
9695;BME280;4690;52.422;13.486;2023-04-26T02:07:47;101109.81;;;6.48;66.64
9695;BME280;4690;52.422;13.486;2023-04-26T02:10:12;101100.22;;;6.53;67.07
9695;BME280;4690;52.422;13.486;2023-04-26T02:12:38;101108.38;;;6.53;67.13
9695;BME280;4690;52.422;13.486;2023-04-26T02:15:04;101111.28;;;6.66;66.92
9695;BME280;4690;52.422;13.486;2023-04-26T02:17:31;101103.50;;;6.63;67.20
9695;BME280;4690;52.422;13.486;2023-04-26T02:19:57;101103.03;;;6.59;66.50
9695;BME280;4690;52.422;13.486;2023-04-26T02:22:23;101105.81;;;6.66;67.17
9695;BME280;4690;52.422;13.486;2023-04-26T02:24:50;101102.00;;;6.60;66.09
9695;BME280;4690;52.422;13.486;2023-04-26T02:27:17;101103.72;;;6.46;67.07
9695;BME280;4690;52.422;13.486;2023-04-26T02:29:43;101111.31;;;6.51;66.82
9695;BME280;4690;52.422;13.486;2023-04-26T02:32:09;101108.78;;;6.49;67.55
9695;BME280;4690;52.422;13.486;2023-04-26T02:34:35;101111.44;;;6.43;67.70
9695;BME280;4690;52.422;13.486;2023-04-26T02:37:00;101102.91;;;6.31;68.16
9695;BME280;4690;52.422;13.486;2023-04-26T02:39:26;101106.63;;;6.45;68.33
9695;BME280;4690;52.422;13.486;2023-04-26T02:41:52;101098.81;;;6.42;68.23
9695;BME280;4690;52.422;13.486;2023-04-26T02:44:18;101111.16;;;6.38;68.12
9695;BME280;4690;52.422;13.486;2023-04-26T02:46:43;101104.03;;;6.22;68.51
9695;BME280;4690;52.422;13.486;2023-04-26T02:49:09;101102.53;;;6.34;68.81
9695;BME280;4690;52.422;13.486;2023-04-26T02:51:35;101108.34;;;6.31;68.74
9695;BME280;4690;52.422;13.486;2023-04-26T02:54:01;101104.91;;;6.22;68.63
9695;BME280;4690;52.422;13.486;2023-04-26T02:56:27;101103.28;;;6.28;68.69
9695;BME280;4690;52.422;13.486;2023-04-26T02:58:53;101101.69;;;6.34;69.15
9695;BME280;4690;52.422;13.486;2023-04-26T03:01:19;101107.75;;;6.36;68.86
9695;BME280;4690;52.422;13.486;2023-04-26T03:03:44;101117.63;;;6.22;68.65
9695;BME280;4690;52.422;13.486;2023-04-26T03:06:10;101101.78;;;6.11;69.97
9695;BME280;4690;52.422;13.486;2023-04-26T03:08:36;101108.56;;;6.15;68.99
9695;BME280;4690;52.422;13.486;2023-04-26T03:11:02;101110.88;;;6.33;68.68
9695;BME280;4690;52.422;13.486;2023-04-26T03:13:28;101107.97;;;6.34;69.12
9695;BME280;4690;52.422;13.486;2023-04-26T03:15:53;101114.53;;;6.25;68.52
9695;BME280;4690;52.422;13.486;2023-04-26T03:18:19;101118.50;;;6.22;68.67
9695;BME280;4690;52.422;13.486;2023-04-26T03:20:45;101121.22;;;6.07;69.29
9695;BME280;4690;52.422;13.486;2023-04-26T03:23:11;101106.22;;;6.12;69.46
9695;BME280;4690;52.422;13.486;2023-04-26T03:25:37;101111.44;;;6.13;69.49
9695;BME280;4690;52.422;13.486;2023-04-26T03:28:02;101108.44;;;5.93;70.15
9695;BME280;4690;52.422;13.486;2023-04-26T03:30:28;101105.72;;;5.93;69.94
9695;BME280;4690;52.422;13.486;2023-04-26T03:32:54;101109.28;;;5.94;70.55
9695;BME280;4690;52.422;13.486;2023-04-26T03:35:20;101116.44;;;5.95;70.73
9695;BME280;4690;52.422;13.486;2023-04-26T03:37:46;101114.13;;;5.69;71.33
9695;BME280;4690;52.422;13.486;2023-04-26T03:40:12;101127.81;;;5.60;71.52
9695;BME280;4690;52.422;13.486;2023-04-26T03:42:38;101117.97;;;5.59;72.01
9695;BME280;4690;52.422;13.486;2023-04-26T03:45:04;101124.16;;;5.68;71.80
9695;BME280;4690;52.422;13.486;2023-04-26T03:47:30;101125.88;;;5.69;71.71
9695;BME280;4690;52.422;13.486;2023-04-26T03:49:57;101128.84;;;5.74;71.36
9695;BME280;4690;52.422;13.486;2023-04-26T03:52:23;101126.78;;;5.76;71.11
9695;BME280;4690;52.422;13.486;2023-04-26T03:54:49;101128.47;;;5.62;71.30
9695;BME280;4690;52.422;13.486;2023-04-26T03:57:15;101125.94;;;5.76;71.48
9695;BME280;4690;52.422;13.486;2023-04-26T03:59:41;101132.59;;;5.88;71.24
9695;BME280;4690;52.422;13.486;2023-04-26T04:02:06;101132.06;;;5.93;71.19
9695;BME280;4690;52.422;13.486;2023-04-26T04:04:32;101137.91;;;6.04;70.76
9695;BME280;4690;52.422;13.486;2023-04-26T04:06:58;101141.84;;;6.02;70.78
9695;BME280;4690;52.422;13.486;2023-04-26T04:09:24;101143.50;;;5.88;71.00
9695;BME280;4690;52.422;13.486;2023-04-26T04:11:50;101135.66;;;5.93;71.08
9695;BME280;4690;52.422;13.486;2023-04-26T04:14:16;101135.25;;;5.81;70.81
9695;BME280;4690;52.422;13.486;2023-04-26T04:16:42;101139.19;;;5.79;71.59
9695;BME280;4690;52.422;13.486;2023-04-26T04:19:08;101137.88;;;5.90;71.21
9695;BME280;4690;52.422;13.486;2023-04-26T04:21:34;101144.00;;;6.06;71.21
9695;BME280;4690;52.422;13.486;2023-04-26T04:23:59;101147.41;;;5.85;70.43
9695;BME280;4690;52.422;13.486;2023-04-26T04:26:26;101148.00;;;5.81;71.49
9695;BME280;4690;52.422;13.486;2023-04-26T04:28:55;101139.72;;;5.97;71.19
9695;BME280;4690;52.422;13.486;2023-04-26T04:31:21;101145.41;;;6.02;71.37
9695;BME280;4690;52.422;13.486;2023-04-26T04:33:47;101147.41;;;6.09;70.11
9695;BME280;4690;52.422;13.486;2023-04-26T04:36:13;101148.09;;;5.88;71.27
9695;BME280;4690;52.422;13.486;2023-04-26T04:38:42;101142.22;;;5.99;71.32
9695;BME280;4690;52.422;13.486;2023-04-26T04:41:08;101148.13;;;6.02;71.07
9695;BME280;4690;52.422;13.486;2023-04-26T04:43:34;101153.75;;;6.16;71.00
9695;BME280;4690;52.422;13.486;2023-04-26T04:46:00;101155.28;;;6.18;70.50
9695;BME280;4690;52.422;13.486;2023-04-26T04:48:26;101152.19;;;6.06;70.25
9695;BME280;4690;52.422;13.486;2023-04-26T04:50:52;101158.00;;;6.18;69.99
9695;BME280;4690;52.422;13.486;2023-04-26T04:53:17;101161.75;;;6.17;70.65
9695;BME280;4690;52.422;13.486;2023-04-26T04:55:43;101158.81;;;6.19;70.02
9695;BME280;4690;52.422;13.486;2023-04-26T04:58:09;101169.34;;;6.37;70.94
9695;BME280;4690;52.422;13.486;2023-04-26T05:00:35;101178.16;;;6.54;70.21
9695;BME280;4690;52.422;13.486;2023-04-26T05:03:03;101170.63;;;6.70;69.37
9695;BME280;4690;52.422;13.486;2023-04-26T05:05:29;101176.94;;;6.56;69.06
9695;BME280;4690;52.422;13.486;2023-04-26T05:07:55;101172.03;;;6.66;68.91
9695;BME280;4690;52.422;13.486;2023-04-26T05:10:21;101179.28;;;6.95;68.71
9695;BME280;4690;52.422;13.486;2023-04-26T05:12:47;101178.97;;;7.05;67.47
9695;BME280;4690;52.422;13.486;2023-04-26T05:15:13;101177.84;;;7.00;68.02
9695;BME280;4690;52.422;13.486;2023-04-26T05:17:41;101185.69;;;6.88;67.36
9695;BME280;4690;52.422;13.486;2023-04-26T05:20:07;101187.53;;;7.02;67.87
9695;BME280;4690;52.422;13.486;2023-04-26T05:22:34;101186.91;;;7.22;67.13
9695;BME280;4690;52.422;13.486;2023-04-26T05:25:01;101190.06;;;7.25;66.16
9695;BME280;4690;52.422;13.486;2023-04-26T05:27:29;101184.63;;;7.47;66.00
9695;BME280;4690;52.422;13.486;2023-04-26T05:29:54;101195.72;;;7.67;65.76
9695;BME280;4690;52.422;13.486;2023-04-26T05:32:20;101201.50;;;7.57;65.70
9695;BME280;4690;52.422;13.486;2023-04-26T05:34:46;101186.03;;;7.64;65.24
9695;BME280;4690;52.422;13.486;2023-04-26T05:37:12;101195.72;;;7.67;64.19
9695;BME280;4690;52.422;13.486;2023-04-26T05:39:38;101191.75;;;7.69;64.69
9695;BME280;4690;52.422;13.486;2023-04-26T05:42:03;101201.81;;;7.97;64.04
9695;BME280;4690;52.422;13.486;2023-04-26T05:44:29;101211.63;;;8.19;63.21
9695;BME280;4690;52.422;13.486;2023-04-26T05:46:55;101212.97;;;8.30;62.59
9695;BME280;4690;52.422;13.486;2023-04-26T05:49:21;101207.56;;;8.37;62.25
9695;BME280;4690;52.422;13.486;2023-04-26T05:51:47;101207.91;;;8.55;61.83
9695;BME280;4690;52.422;13.486;2023-04-26T05:54:12;101202.59;;;8.47;60.89
9695;BME280;4690;52.422;13.486;2023-04-26T05:56:38;101205.41;;;8.60;60.80
9695;BME280;4690;52.422;13.486;2023-04-26T05:59:04;101213.84;;;8.65;60.19
9695;BME280;4690;52.422;13.486;2023-04-26T06:01:30;101218.50;;;8.71;60.51
9695;BME280;4690;52.422;13.486;2023-04-26T06:03:56;101217.78;;;9.04;59.69
9695;BME280;4690;52.422;13.486;2023-04-26T06:06:21;101210.94;;;9.35;58.83
9695;BME280;4690;52.422;13.486;2023-04-26T06:08:47;101213.41;;;9.23;58.20
9695;BME280;4690;52.422;13.486;2023-04-26T06:11:13;101225.66;;;9.34;57.88
9695;BME280;4690;52.422;13.486;2023-04-26T06:13:39;101219.16;;;9.41;57.88
9695;BME280;4690;52.422;13.486;2023-04-26T06:16:05;101221.88;;;9.41;56.95
9695;BME280;4690;52.422;13.486;2023-04-26T06:18:30;101216.59;;;9.40;57.17
9695;BME280;4690;52.422;13.486;2023-04-26T06:20:56;101221.94;;;9.75;56.19
9695;BME280;4690;52.422;13.486;2023-04-26T06:23:22;101217.50;;;9.80;55.67
9695;BME280;4690;52.422;13.486;2023-04-26T06:25:47;101200.41;;;10.05;55.86
9695;BME280;4690;52.422;13.486;2023-04-26T06:28:13;101211.59;;;10.30;55.32
9695;BME280;4690;52.422;13.486;2023-04-26T06:30:41;101216.19;;;10.56;53.36
9695;BME280;4690;52.422;13.486;2023-04-26T06:33:06;101210.06;;;11.06;53.45
9695;BME280;4690;52.422;13.486;2023-04-26T06:35:41;101213.19;;;11.48;51.07
9695;BME280;4690;52.422;13.486;2023-04-26T06:38:08;101219.53;;;11.48;51.05
9695;BME280;4690;52.422;13.486;2023-04-26T06:40:34;101218.47;;;11.49;51.05
9695;BME280;4690;52.422;13.486;2023-04-26T06:43:03;101220.25;;;11.94;49.76
9695;BME280;4690;52.422;13.486;2023-04-26T06:45:29;101226.72;;;12.06;48.61
9695;BME280;4690;52.422;13.486;2023-04-26T06:47:55;101220.00;;;12.45;47.74
9695;BME280;4690;52.422;13.486;2023-04-26T06:50:21;101223.41;;;12.22;47.81
9695;BME280;4690;52.422;13.486;2023-04-26T06:52:47;101227.50;;;12.56;47.71
9695;BME280;4690;52.422;13.486;2023-04-26T06:55:13;101226.94;;;13.03;46.72
9695;BME280;4690;52.422;13.486;2023-04-26T06:57:38;101226.53;;;13.18;45.35
9695;BME280;4690;52.422;13.486;2023-04-26T07:00:05;101212.59;;;13.61;45.59
9695;BME280;4690;52.422;13.486;2023-04-26T07:02:31;101213.16;;;14.17;44.02
9695;BME280;4690;52.422;13.486;2023-04-26T07:04:57;101224.91;;;14.48;42.58
9695;BME280;4690;52.422;13.486;2023-04-26T07:07:22;101226.47;;;14.20;42.06
9695;BME280;4690;52.422;13.486;2023-04-26T07:09:48;101222.25;;;14.29;42.40
9695;BME280;4690;52.422;13.486;2023-04-26T07:12:14;101229.56;;;14.71;42.82
9695;BME280;4690;52.422;13.486;2023-04-26T07:14:40;101244.41;;;13.99;42.51
9695;BME280;4690;52.422;13.486;2023-04-26T07:17:10;101235.25;;;13.75;42.87
9695;BME280;4690;52.422;13.486;2023-04-26T07:19:36;101230.47;;;13.82;42.62
9695;BME280;4690;52.422;13.486;2023-04-26T07:22:02;101233.44;;;13.57;43.24
9695;BME280;4690;52.422;13.486;2023-04-26T07:24:29;101238.41;;;13.49;44.46
9695;BME280;4690;52.422;13.486;2023-04-26T07:26:55;101242.63;;;12.66;44.96
9695;BME280;4690;52.422;13.486;2023-04-26T07:29:21;101245.84;;;12.19;46.13
9695;BME280;4690;52.422;13.486;2023-04-26T07:31:48;101241.00;;;11.89;46.86
9695;BME280;4690;52.422;13.486;2023-04-26T07:34:14;101234.41;;;12.22;48.17
9695;BME280;4690;52.422;13.486;2023-04-26T07:36:40;101234.00;;;12.19;46.56
9695;BME280;4690;52.422;13.486;2023-04-26T07:39:07;101223.91;;;12.74;47.40
9695;BME280;4690;52.422;13.486;2023-04-26T07:41:34;101234.81;;;13.48;45.73
9695;BME280;4690;52.422;13.486;2023-04-26T07:44:00;101241.38;;;13.77;42.97
9695;BME280;4690;52.422;13.486;2023-04-26T07:46:26;101238.22;;;13.62;43.21
9695;BME280;4690;52.422;13.486;2023-04-26T07:48:52;101239.44;;;13.17;43.90
9695;BME280;4690;52.422;13.486;2023-04-26T07:51:18;101240.63;;;13.10;44.56
9695;BME280;4690;52.422;13.486;2023-04-26T07:53:43;101240.00;;;13.56;44.78
9695;BME280;4690;52.422;13.486;2023-04-26T07:56:09;101240.22;;;13.97;42.35
9695;BME280;4690;52.422;13.486;2023-04-26T07:58:37;101244.31;;;14.06;41.95
9695;BME280;4690;52.422;13.486;2023-04-26T08:01:04;101244.53;;;14.04;42.31
9695;BME280;4690;52.422;13.486;2023-04-26T08:03:31;101242.59;;;13.93;42.51
9695;BME280;4690;52.422;13.486;2023-04-26T08:05:57;101244.91;;;14.08;43.29
9695;BME280;4690;52.422;13.486;2023-04-26T08:08:25;101244.03;;;13.84;42.71
9695;BME280;4690;52.422;13.486;2023-04-26T08:10:54;101253.53;;;12.91;42.74
9695;BME280;4690;52.422;13.486;2023-04-26T08:13:21;101258.41;;;12.33;43.37
9695;BME280;4690;52.422;13.486;2023-04-26T08:15:47;101260.53;;;12.31;44.69
9695;BME280;4690;52.422;13.486;2023-04-26T08:18:13;101260.28;;;11.83;45.38
9695;BME280;4690;52.422;13.486;2023-04-26T08:20:39;101267.47;;;11.45;46.55
9695;BME280;4690;52.422;13.486;2023-04-26T08:23:05;101258.66;;;11.37;48.11
9695;BME280;4690;52.422;13.486;2023-04-26T08:25:31;101260.44;;;11.56;47.46
9695;BME280;4690;52.422;13.486;2023-04-26T08:28:02;101259.31;;;12.02;47.06
9695;BME280;4690;52.422;13.486;2023-04-26T08:30:29;101264.19;;;12.25;46.17
9695;BME280;4690;52.422;13.486;2023-04-26T08:32:55;101260.16;;;12.03;45.92
9695;BME280;4690;52.422;13.486;2023-04-26T08:35:21;101265.34;;;11.86;47.23
9695;BME280;4690;52.422;13.486;2023-04-26T08:37:46;101267.38;;;11.59;49.68
9695;BME280;4690;52.422;13.486;2023-04-26T08:40:12;101272.59;;;11.35;51.70
9695;BME280;4690;52.422;13.486;2023-04-26T08:42:40;101267.47;;;11.00;53.66
9695;BME280;4690;52.422;13.486;2023-04-26T08:45:09;101270.88;;;10.96;54.80
9695;BME280;4690;52.422;13.486;2023-04-26T08:47:49;101278.50;;;10.87;56.64
9695;BME280;4690;52.422;13.486;2023-04-26T08:50:21;101286.78;;;10.54;54.36
9695;BME280;4690;52.422;13.486;2023-04-26T08:52:49;101275.19;;;10.52;56.60
9695;BME280;4690;52.422;13.486;2023-04-26T08:55:18;101270.28;;;10.81;56.54
9695;BME280;4690;52.422;13.486;2023-04-26T08:57:48;101270.53;;;10.66;54.41
9695;BME280;4690;52.422;13.486;2023-04-26T09:00:17;101269.00;;;10.83;55.24
9695;BME280;4690;52.422;13.486;2023-04-26T09:02:51;101267.31;;;10.89;52.82
9695;BME280;4690;52.422;13.486;2023-04-26T09:05:19;101275.75;;;10.87;52.43
9695;BME280;4690;52.422;13.486;2023-04-26T09:07:56;101276.91;;;11.11;53.13
9695;BME280;4690;52.422;13.486;2023-04-26T09:10:25;101270.69;;;10.91;51.16
9695;BME280;4690;52.422;13.486;2023-04-26T09:12:52;101266.69;;;11.32;51.81
9695;BME280;4690;52.422;13.486;2023-04-26T09:15:21;101267.59;;;11.96;49.84
9695;BME280;4690;52.422;13.486;2023-04-26T09:17:47;101261.69;;;12.61;47.82
9695;BME280;4690;52.422;13.486;2023-04-26T09:20:28;101259.81;;;12.79;44.92
9695;BME280;4690;52.422;13.486;2023-04-26T09:23:06;101256.75;;;12.88;43.47
9695;BME280;4690;52.422;13.486;2023-04-26T09:25:33;101261.50;;;12.99;43.34
9695;BME280;4690;52.422;13.486;2023-04-26T09:28:00;101265.41;;;12.73;42.17
9695;BME280;4690;52.422;13.486;2023-04-26T09:30:27;101261.78;;;12.91;43.26
9695;BME280;4690;52.422;13.486;2023-04-26T09:33:01;101265.53;;;12.60;41.46
9695;BME280;4690;52.422;13.486;2023-04-26T09:40:49;101272.69;;;12.17;44.79
9695;BME280;4690;52.422;13.486;2023-04-26T09:43:20;101267.88;;;11.81;44.03
9695;BME280;4690;52.422;13.486;2023-04-26T09:45:53;101277.66;;;12.02;45.40
9695;BME280;4690;52.422;13.486;2023-04-26T09:48:27;101271.44;;;12.13;45.23
9695;BME280;4690;52.422;13.486;2023-04-26T09:51:08;101265.69;;;12.21;45.34
9695;BME280;4690;52.422;13.486;2023-04-26T09:53:45;101274.09;;;12.26;46.06
9695;BME280;4690;52.422;13.486;2023-04-26T10:01:15;101282.34;;;12.26;46.01
9695;BME280;4690;52.422;13.486;2023-04-26T10:03:42;101277.19;;;12.11;46.05
9695;BME280;4690;52.422;13.486;2023-04-26T10:06:08;101270.72;;;11.99;46.55
9695;BME280;4690;52.422;13.486;2023-04-26T10:08:35;101278.84;;;11.87;47.08
9695;BME280;4690;52.422;13.486;2023-04-26T10:11:03;101268.47;;;11.89;46.62
9695;BME280;4690;52.422;13.486;2023-04-26T10:13:33;101263.94;;;12.27;43.98
9695;BME280;4690;52.422;13.486;2023-04-26T10:16:00;101264.19;;;12.44;44.90
9695;BME280;4690;52.422;13.486;2023-04-26T10:18:27;101270.69;;;12.49;43.92
9695;BME280;4690;52.422;13.486;2023-04-26T10:20:59;101270.69;;;12.31;43.97
9695;BME280;4690;52.422;13.486;2023-04-26T10:23:27;101272.72;;;12.10;44.84
9695;BME280;4690;52.422;13.486;2023-04-26T10:25:53;101263.66;;;12.10;45.53
9695;BME280;4690;52.422;13.486;2023-04-26T10:31:05;101266.16;;;11.55;44.42
9695;BME280;4690;52.422;13.486;2023-04-26T10:33:32;101275.50;;;11.85;43.83
9695;BME280;4690;52.422;13.486;2023-04-26T10:36:12;101277.13;;;12.18;43.12
9695;BME280;4690;52.422;13.486;2023-04-26T10:38:41;101269.09;;;12.42;43.43
9695;BME280;4690;52.422;13.486;2023-04-26T10:41:34;101269.66;;;12.50;41.67
9695;BME280;4690;52.422;13.486;2023-04-26T10:44:49;101259.34;;;13.01;42.30
9695;BME280;4690;52.422;13.486;2023-04-26T10:49:51;101266.34;;;13.34;39.89
9695;BME280;4690;52.422;13.486;2023-04-26T10:52:19;101277.28;;;13.40;39.91
9695;BME280;4690;52.422;13.486;2023-04-26T10:54:56;101267.09;;;13.22;39.88
9695;BME280;4690;52.422;13.486;2023-04-26T10:57:47;101281.50;;;13.06;40.01
9695;BME280;4690;52.422;13.486;2023-04-26T11:00:28;101275.84;;;12.83;40.37
9695;BME280;4690;52.422;13.486;2023-04-26T11:03:02;101269.97;;;12.79;40.54
9695;BME280;4690;52.422;13.486;2023-04-26T11:05:50;101274.31;;;12.68;40.53
9695;BME280;4690;52.422;13.486;2023-04-26T11:08:19;101279.44;;;12.65;40.64
9695;BME280;4690;52.422;13.486;2023-04-26T11:13:30;101282.34;;;12.70;44.28
9695;BME280;4690;52.422;13.486;2023-04-26T11:16:02;101272.88;;;12.66;42.22
9695;BME280;4690;52.422;13.486;2023-04-26T11:18:32;101279.94;;;12.55;42.29
9695;BME280;4690;52.422;13.486;2023-04-26T11:20:58;101282.47;;;12.56;42.75
9695;BME280;4690;52.422;13.486;2023-04-26T11:23:28;101262.00;;;12.52;42.17
9695;BME280;4690;52.422;13.486;2023-04-26T11:26:05;101276.66;;;12.46;41.44
9695;BME280;4690;52.422;13.486;2023-04-26T11:28:35;101277.38;;;12.35;42.27
9695;BME280;4690;52.422;13.486;2023-04-26T11:31:03;101283.13;;;12.08;41.80
9695;BME280;4690;52.422;13.486;2023-04-26T11:33:29;101287.19;;;11.99;41.88
9695;BME280;4690;52.422;13.486;2023-04-26T11:35:57;101281.13;;;11.91;42.25
9695;BME280;4690;52.422;13.486;2023-04-26T11:38:25;101284.44;;;11.99;42.86
9695;BME280;4690;52.422;13.486;2023-04-26T11:41:00;101284.16;;;12.14;42.78
9695;BME280;4690;52.422;13.486;2023-04-26T11:43:44;101289.56;;;11.96;41.79
9695;BME280;4690;52.422;13.486;2023-04-26T11:46:10;101280.13;;;12.35;42.13
9695;BME280;4690;52.422;13.486;2023-04-26T11:48:38;101280.44;;;12.70;40.22
9695;BME280;4690;52.422;13.486;2023-04-26T11:51:05;101275.69;;;13.14;39.89
9695;BME280;4690;52.422;13.486;2023-04-26T11:53:40;101285.41;;;13.35;39.36
9695;BME280;4690;52.422;13.486;2023-04-26T11:56:14;101289.72;;;13.43;39.27
9695;BME280;4690;52.422;13.486;2023-04-26T11:58:52;101290.97;;;13.29;39.40
9695;BME280;4690;52.422;13.486;2023-04-26T12:01:26;101295.56;;;12.79;38.99
9695;BME280;4690;52.422;13.486;2023-04-26T12:03:58;101300.03;;;12.55;40.33
9695;BME280;4690;52.422;13.486;2023-04-26T12:06:45;101306.06;;;12.21;40.62
9695;BME280;4690;52.422;13.486;2023-04-26T12:09:12;101304.66;;;12.37;42.29
9695;BME280;4690;52.422;13.486;2023-04-26T12:11:39;101305.84;;;12.22;42.54
9695;BME280;4690;52.422;13.486;2023-04-26T12:14:04;101307.63;;;12.10;42.68
9695;BME280;4690;52.422;13.486;2023-04-26T12:16:35;101308.75;;;12.02;42.08
9695;BME280;4690;52.422;13.486;2023-04-26T12:19:04;101305.00;;;11.97;42.67
9695;BME280;4690;52.422;13.486;2023-04-26T12:21:43;101303.19;;;12.09;43.21
9695;BME280;4690;52.422;13.486;2023-04-26T12:24:28;101301.19;;;12.23;42.52
9695;BME280;4690;52.422;13.486;2023-04-26T12:26:55;101310.81;;;12.32;41.43
9695;BME280;4690;52.422;13.486;2023-04-26T12:29:21;101307.50;;;12.48;42.20
9695;BME280;4690;52.422;13.486;2023-04-26T12:31:47;101298.28;;;12.61;41.21
9695;BME280;4690;52.422;13.486;2023-04-26T12:34:13;101302.03;;;12.67;40.45
9695;BME280;4690;52.422;13.486;2023-04-26T12:36:41;101306.09;;;12.64;40.37
9695;BME280;4690;52.422;13.486;2023-04-26T12:39:11;101303.50;;;12.69;38.92
9695;BME280;4690;52.422;13.486;2023-04-26T12:41:39;101299.22;;;12.73;39.06
9695;BME280;4690;52.422;13.486;2023-04-26T12:44:10;101305.03;;;12.40;39.32
9695;BME280;4690;52.422;13.486;2023-04-26T12:46:36;101307.34;;;12.43;39.53
9695;BME280;4690;52.422;13.486;2023-04-26T12:49:02;101307.13;;;12.45;40.15
9695;BME280;4690;52.422;13.486;2023-04-26T12:51:29;101302.75;;;12.37;40.34
9695;BME280;4690;52.422;13.486;2023-04-26T12:53:56;101303.13;;;12.41;39.84
9695;BME280;4690;52.422;13.486;2023-04-26T12:56:23;101293.94;;;12.03;39.26
9695;BME280;4690;52.422;13.486;2023-04-26T12:58:49;101297.88;;;12.14;39.92
9695;BME280;4690;52.422;13.486;2023-04-26T13:01:15;101294.25;;;12.39;40.02
9695;BME280;4690;52.422;13.486;2023-04-26T13:03:41;101289.34;;;12.66;39.26
9695;BME280;4690;52.422;13.486;2023-04-26T13:06:07;101310.31;;;12.85;38.69
9695;BME280;4690;52.422;13.486;2023-04-26T13:08:33;101306.66;;;13.10;37.18
9695;BME280;4690;52.422;13.486;2023-04-26T13:10:59;101301.16;;;13.28;36.64
9695;BME280;4690;52.422;13.486;2023-04-26T13:13:25;101299.88;;;13.61;35.68
9695;BME280;4690;52.422;13.486;2023-04-26T13:15:52;101282.88;;;13.94;36.07
9695;BME280;4690;52.422;13.486;2023-04-26T13:18:17;101289.38;;;14.23;36.45
9695;BME280;4690;52.422;13.486;2023-04-26T13:20:44;101288.22;;;14.54;34.89
9695;BME280;4690;52.422;13.486;2023-04-26T13:23:10;101291.59;;;14.56;34.90
9695;BME280;4690;52.422;13.486;2023-04-26T13:25:40;101289.91;;;14.67;35.93
9695;BME280;4690;52.422;13.486;2023-04-26T13:28:06;101297.94;;;14.69;33.46
9695;BME280;4690;52.422;13.486;2023-04-26T13:30:32;101291.66;;;14.38;34.34